sensor_id;sensor_type;location;lat;lon;timestamp;P1;durP1;ratioP1;P2;durP2;ratioP2
7821;SDS011;3956;50.558;9.678;2023-05-02T00:01:39;6.27;;;4.57;;
7821;SDS011;3956;50.558;9.678;2023-05-02T00:04:08;5.40;;;4.53;;
7821;SDS011;3956;50.558;9.678;2023-05-02T00:06:39;8.97;;;4.37;;
7821;SDS011;3956;50.558;9.678;2023-05-02T00:09:14;5.87;;;4.47;;
7821;SDS011;3956;50.558;9.678;2023-05-02T00:11:48;6.03;;;4.30;;
7821;SDS011;3956;50.558;9.678;2023-05-02T00:14:39;5.17;;;4.60;;
7821;SDS011;3956;50.558;9.678;2023-05-02T00:17:15;6.63;;;4.67;;
7821;SDS011;3956;50.558;9.678;2023-05-02T00:19:50;7.50;;;4.80;;
7821;SDS011;3956;50.558;9.678;2023-05-02T00:22:27;4.93;;;4.40;;
7821;SDS011;3956;50.558;9.678;2023-05-02T00:25:05;5.63;;;4.33;;
7821;SDS011;3956;50.558;9.678;2023-05-02T00:27:36;5.67;;;4.50;;
7821;SDS011;3956;50.558;9.678;2023-05-02T00:30:28;4.60;;;4.20;;
7821;SDS011;3956;50.558;9.678;2023-05-02T00:33:14;7.53;;;4.57;;
7821;SDS011;3956;50.558;9.678;2023-05-02T00:35:48;4.87;;;4.37;;
7821;SDS011;3956;50.558;9.678;2023-05-02T00:38:25;5.63;;;4.37;;
7821;SDS011;3956;50.558;9.678;2023-05-02T00:41:00;4.93;;;4.30;;
7821;SDS011;3956;50.558;9.678;2023-05-02T00:43:31;9.47;;;4.63;;
7821;SDS011;3956;50.558;9.678;2023-05-02T00:46:06;4.87;;;3.97;;
7821;SDS011;3956;50.558;9.678;2023-05-02T00:48:42;4.40;;;3.70;;
7821;SDS011;3956;50.558;9.678;2023-05-02T00:51:30;3.67;;;3.23;;
7821;SDS011;3956;50.558;9.678;2023-05-02T00:54:15;4.30;;;3.17;;
7821;SDS011;3956;50.558;9.678;2023-05-02T00:56:55;3.80;;;3.13;;
7821;SDS011;3956;50.558;9.678;2023-05-02T00:59:28;5.03;;;3.27;;
7821;SDS011;3956;50.558;9.678;2023-05-02T01:02:03;4.00;;;2.77;;
7821;SDS011;3956;50.558;9.678;2023-05-02T01:04:42;3.87;;;3.20;;
7821;SDS011;3956;50.558;9.678;2023-05-02T01:07:30;6.10;;;3.87;;
7821;SDS011;3956;50.558;9.678;2023-05-02T01:10:13;3.53;;;2.97;;
7821;SDS011;3956;50.558;9.678;2023-05-02T01:12:53;4.50;;;3.10;;
7821;SDS011;3956;50.558;9.678;2023-05-02T01:15:37;4.33;;;3.47;;
7821;SDS011;3956;50.558;9.678;2023-05-02T01:18:09;4.67;;;3.20;;
7821;SDS011;3956;50.558;9.678;2023-05-02T01:20:42;3.77;;;3.40;;
7821;SDS011;3956;50.558;9.678;2023-05-02T01:23:20;4.07;;;3.53;;
7821;SDS011;3956;50.558;9.678;2023-05-02T01:26:02;3.40;;;3.10;;
7821;SDS011;3956;50.558;9.678;2023-05-02T01:31:33;4.07;;;3.50;;
7821;SDS011;3956;50.558;9.678;2023-05-02T01:34:03;4.20;;;3.80;;
7821;SDS011;3956;50.558;9.678;2023-05-02T01:36:37;4.40;;;4.00;;
7821;SDS011;3956;50.558;9.678;2023-05-02T01:39:12;5.57;;;3.97;;
7821;SDS011;3956;50.558;9.678;2023-05-02T01:41:48;4.73;;;4.10;;
7821;SDS011;3956;50.558;9.678;2023-05-02T01:44:19;5.50;;;3.67;;
7821;SDS011;3956;50.558;9.678;2023-05-02T01:46:51;5.57;;;3.70;;
7821;SDS011;3956;50.558;9.678;2023-05-02T01:49:27;4.27;;;3.87;;
7821;SDS011;3956;50.558;9.678;2023-05-02T01:51:59;4.63;;;3.70;;
7821;SDS011;3956;50.558;9.678;2023-05-02T01:54:32;4.20;;;3.77;;
7821;SDS011;3956;50.558;9.678;2023-05-02T01:57:04;4.67;;;3.87;;
7821;SDS011;3956;50.558;9.678;2023-05-02T01:59:37;6.87;;;3.93;;
7821;SDS011;3956;50.558;9.678;2023-05-02T02:02:09;6.30;;;4.23;;
7821;SDS011;3956;50.558;9.678;2023-05-02T02:04:40;5.67;;;4.10;;
7821;SDS011;3956;50.558;9.678;2023-05-02T02:07:12;6.47;;;4.30;;
7821;SDS011;3956;50.558;9.678;2023-05-02T02:09:44;7.50;;;4.27;;
7821;SDS011;3956;50.558;9.678;2023-05-02T02:12:14;5.83;;;4.30;;
7821;SDS011;3956;50.558;9.678;2023-05-02T02:14:55;4.37;;;3.97;;
7821;SDS011;3956;50.558;9.678;2023-05-02T02:17:31;3.90;;;3.47;;
7821;SDS011;3956;50.558;9.678;2023-05-02T02:20:08;5.23;;;4.00;;
7821;SDS011;3956;50.558;9.678;2023-05-02T02:22:39;4.83;;;3.57;;
7821;SDS011;3956;50.558;9.678;2023-05-02T02:25:10;5.20;;;3.83;;
7821;SDS011;3956;50.558;9.678;2023-05-02T02:27:41;4.60;;;4.07;;
7821;SDS011;3956;50.558;9.678;2023-05-02T02:30:12;6.30;;;5.07;;
7821;SDS011;3956;50.558;9.678;2023-05-02T02:35:13;6.03;;;5.00;;
7821;SDS011;3956;50.558;9.678;2023-05-02T02:37:44;5.87;;;3.87;;
7821;SDS011;3956;50.558;9.678;2023-05-02T02:40:20;3.87;;;3.33;;
7821;SDS011;3956;50.558;9.678;2023-05-02T02:42:59;4.83;;;3.30;;
7821;SDS011;3956;50.558;9.678;2023-05-02T02:45:42;3.30;;;3.00;;
7821;SDS011;3956;50.558;9.678;2023-05-02T02:48:37;5.03;;;3.27;;
7821;SDS011;3956;50.558;9.678;2023-05-02T02:51:24;4.13;;;3.70;;
7821;SDS011;3956;50.558;9.678;2023-05-02T02:54:08;5.60;;;3.57;;
7821;SDS011;3956;50.558;9.678;2023-05-02T02:56:54;4.03;;;3.53;;
7821;SDS011;3956;50.558;9.678;2023-05-02T02:59:28;4.93;;;3.63;;
7821;SDS011;3956;50.558;9.678;2023-05-02T03:02:02;4.13;;;3.70;;
7821;SDS011;3956;50.558;9.678;2023-05-02T03:04:37;4.30;;;3.90;;
7821;SDS011;3956;50.558;9.678;2023-05-02T03:07:07;4.03;;;3.63;;
7821;SDS011;3956;50.558;9.678;2023-05-02T03:09:39;4.17;;;3.77;;
7821;SDS011;3956;50.558;9.678;2023-05-02T03:12:10;4.17;;;3.77;;
7821;SDS011;3956;50.558;9.678;2023-05-02T03:14:41;3.77;;;3.40;;
7821;SDS011;3956;50.558;9.678;2023-05-02T03:17:25;5.53;;;4.00;;
7821;SDS011;3956;50.558;9.678;2023-05-02T03:19:55;6.40;;;3.80;;
7821;SDS011;3956;50.558;9.678;2023-05-02T03:22:26;5.10;;;3.50;;
7821;SDS011;3956;50.558;9.678;2023-05-02T03:24:54;4.73;;;4.03;;
7821;SDS011;3956;50.558;9.678;2023-05-02T03:27:27;9.33;;;5.37;;
7821;SDS011;3956;50.558;9.678;2023-05-02T03:29:57;5.67;;;4.90;;
7821;SDS011;3956;50.558;9.678;2023-05-02T03:32:26;6.00;;;4.50;;
7821;SDS011;3956;50.558;9.678;2023-05-02T03:34:57;7.50;;;5.23;;
7821;SDS011;3956;50.558;9.678;2023-05-02T03:37:25;6.50;;;4.70;;
7821;SDS011;3956;50.558;9.678;2023-05-02T03:39:56;4.90;;;4.30;;
7821;SDS011;3956;50.558;9.678;2023-05-02T03:42:26;5.33;;;4.83;;
7821;SDS011;3956;50.558;9.678;2023-05-02T03:45:04;5.83;;;4.67;;
7821;SDS011;3956;50.558;9.678;2023-05-02T03:47:38;8.77;;;4.47;;
7821;SDS011;3956;50.558;9.678;2023-05-02T03:50:08;6.43;;;4.73;;
7821;SDS011;3956;50.558;9.678;2023-05-02T03:52:38;5.57;;;4.77;;
7821;SDS011;3956;50.558;9.678;2023-05-02T03:55:11;5.53;;;4.80;;
7821;SDS011;3956;50.558;9.678;2023-05-02T03:57:59;8.30;;;4.50;;
7821;SDS011;3956;50.558;9.678;2023-05-02T04:00:31;5.20;;;4.70;;
7821;SDS011;3956;50.558;9.678;2023-05-02T04:03:01;6.10;;;4.50;;
7821;SDS011;3956;50.558;9.678;2023-05-02T04:05:38;5.87;;;4.70;;
7821;SDS011;3956;50.558;9.678;2023-05-02T04:08:28;9.30;;;4.73;;
7821;SDS011;3956;50.558;9.678;2023-05-02T04:10:57;5.43;;;4.87;;
7821;SDS011;3956;50.558;9.678;2023-05-02T04:13:27;6.70;;;4.77;;
7821;SDS011;3956;50.558;9.678;2023-05-02T04:16:01;7.37;;;4.87;;
7821;SDS011;3956;50.558;9.678;2023-05-02T04:18:29;6.07;;;5.37;;
7821;SDS011;3956;50.558;9.678;2023-05-02T04:20:59;6.73;;;5.47;;
7821;SDS011;3956;50.558;9.678;2023-05-02T04:23:28;6.40;;;5.50;;
7821;SDS011;3956;50.558;9.678;2023-05-02T04:25:57;8.17;;;5.37;;
7821;SDS011;3956;50.558;9.678;2023-05-02T04:28:26;6.10;;;5.50;;
7821;SDS011;3956;50.558;9.678;2023-05-02T04:30:57;23.40;;;10.63;;
7821;SDS011;3956;50.558;9.678;2023-05-02T04:33:32;6.87;;;5.70;;
7821;SDS011;3956;50.558;9.678;2023-05-02T04:36:04;8.23;;;5.90;;
7821;SDS011;3956;50.558;9.678;2023-05-02T04:38:33;9.57;;;5.70;;
7821;SDS011;3956;50.558;9.678;2023-05-02T04:41:01;5.80;;;5.20;;
7821;SDS011;3956;50.558;9.678;2023-05-02T04:43:36;6.77;;;5.77;;
7821;SDS011;3956;50.558;9.678;2023-05-02T04:46:09;7.60;;;5.50;;
7821;SDS011;3956;50.558;9.678;2023-05-02T04:48:44;7.33;;;4.77;;
7821;SDS011;3956;50.558;9.678;2023-05-02T04:51:15;7.10;;;5.03;;
7821;SDS011;3956;50.558;9.678;2023-05-02T04:53:43;7.73;;;6.07;;
7821;SDS011;3956;50.558;9.678;2023-05-02T04:56:12;8.40;;;5.37;;
7821;SDS011;3956;50.558;9.678;2023-05-02T04:58:48;6.40;;;5.50;;
7821;SDS011;3956;50.558;9.678;2023-05-02T05:01:17;7.33;;;5.40;;
7821;SDS011;3956;50.558;9.678;2023-05-02T05:03:53;8.20;;;5.80;;
7821;SDS011;3956;50.558;9.678;2023-05-02T05:06:24;6.80;;;5.23;;
7821;SDS011;3956;50.558;9.678;2023-05-02T05:09:09;7.60;;;5.07;;
7821;SDS011;3956;50.558;9.678;2023-05-02T05:12:09;6.70;;;5.90;;
7821;SDS011;3956;50.558;9.678;2023-05-02T05:14:40;7.03;;;5.97;;
7821;SDS011;3956;50.558;9.678;2023-05-02T05:17:09;7.77;;;6.03;;
7821;SDS011;3956;50.558;9.678;2023-05-02T05:19:41;6.50;;;5.70;;
7821;SDS011;3956;50.558;9.678;2023-05-02T05:22:18;11.97;;;6.47;;
7821;SDS011;3956;50.558;9.678;2023-05-02T05:24:54;8.97;;;7.50;;
7821;SDS011;3956;50.558;9.678;2023-05-02T05:27:33;9.20;;;7.13;;
7821;SDS011;3956;50.558;9.678;2023-05-02T05:30:19;18.37;;;8.23;;
7821;SDS011;3956;50.558;9.678;2023-05-02T05:32:48;10.50;;;7.53;;
7821;SDS011;3956;50.558;9.678;2023-05-02T05:35:19;9.90;;;7.67;;
7821;SDS011;3956;50.558;9.678;2023-05-02T05:37:58;9.73;;;7.03;;
7821;SDS011;3956;50.558;9.678;2023-05-02T05:40:33;8.77;;;6.57;;
7821;SDS011;3956;50.558;9.678;2023-05-02T05:45:58;8.77;;;6.80;;
7821;SDS011;3956;50.558;9.678;2023-05-02T05:48:31;7.23;;;6.50;;
7821;SDS011;3956;50.558;9.678;2023-05-02T05:51:02;9.23;;;7.50;;
7821;SDS011;3956;50.558;9.678;2023-05-02T05:53:37;9.13;;;6.93;;
7821;SDS011;3956;50.558;9.678;2023-05-02T05:56:09;11.73;;;8.03;;
7821;SDS011;3956;50.558;9.678;2023-05-02T05:58:38;9.57;;;7.73;;
7821;SDS011;3956;50.558;9.678;2023-05-02T06:01:08;11.40;;;8.17;;
7821;SDS011;3956;50.558;9.678;2023-05-02T06:03:41;11.27;;;7.30;;
7821;SDS011;3956;50.558;9.678;2023-05-02T06:06:18;9.73;;;7.73;;
7821;SDS011;3956;50.558;9.678;2023-05-02T06:08:56;9.33;;;7.50;;
7821;SDS011;3956;50.558;9.678;2023-05-02T06:11:28;9.70;;;7.57;;
7821;SDS011;3956;50.558;9.678;2023-05-02T06:14:00;11.17;;;8.23;;
7821;SDS011;3956;50.558;9.678;2023-05-02T06:16:30;12.03;;;8.90;;
7821;SDS011;3956;50.558;9.678;2023-05-02T06:19:02;9.93;;;8.40;;
7821;SDS011;3956;50.558;9.678;2023-05-02T06:21:32;12.63;;;9.60;;
7821;SDS011;3956;50.558;9.678;2023-05-02T06:24:06;10.37;;;9.33;;
7821;SDS011;3956;50.558;9.678;2023-05-02T06:26:35;12.47;;;9.73;;
7821;SDS011;3956;50.558;9.678;2023-05-02T06:29:05;12.80;;;10.10;;
7821;SDS011;3956;50.558;9.678;2023-05-02T06:31:39;12.37;;;9.60;;
7821;SDS011;3956;50.558;9.678;2023-05-02T06:34:15;13.43;;;11.10;;
7821;SDS011;3956;50.558;9.678;2023-05-02T06:36:48;12.00;;;10.20;;
7821;SDS011;3956;50.558;9.678;2023-05-02T06:39:34;13.03;;;10.10;;
7821;SDS011;3956;50.558;9.678;2023-05-02T06:42:08;16.43;;;10.10;;
7821;SDS011;3956;50.558;9.678;2023-05-02T06:44:39;13.63;;;10.20;;
7821;SDS011;3956;50.558;9.678;2023-05-02T06:47:09;15.30;;;9.83;;
7821;SDS011;3956;50.558;9.678;2023-05-02T06:49:38;10.50;;;9.27;;
7821;SDS011;3956;50.558;9.678;2023-05-02T06:52:08;11.20;;;9.53;;
7821;SDS011;3956;50.558;9.678;2023-05-02T06:54:51;12.07;;;9.23;;
7821;SDS011;3956;50.558;9.678;2023-05-02T06:57:21;10.90;;;9.50;;
7821;SDS011;3956;50.558;9.678;2023-05-02T07:00:17;10.80;;;8.90;;
7821;SDS011;3956;50.558;9.678;2023-05-02T07:03:04;15.80;;;10.33;;
7821;SDS011;3956;50.558;9.678;2023-05-02T07:05:34;13.87;;;11.20;;
7821;SDS011;3956;50.558;9.678;2023-05-02T07:08:14;11.23;;;9.17;;
7821;SDS011;3956;50.558;9.678;2023-05-02T07:10:50;10.57;;;9.40;;
7821;SDS011;3956;50.558;9.678;2023-05-02T07:13:20;11.40;;;9.77;;
7821;SDS011;3956;50.558;9.678;2023-05-02T07:15:51;14.10;;;9.83;;
7821;SDS011;3956;50.558;9.678;2023-05-02T07:18:46;10.97;;;9.23;;
7821;SDS011;3956;50.558;9.678;2023-05-02T07:21:53;11.80;;;9.93;;
7821;SDS011;3956;50.558;9.678;2023-05-02T07:24:24;12.40;;;10.90;;
7821;SDS011;3956;50.558;9.678;2023-05-02T07:26:58;13.87;;;10.77;;
7821;SDS011;3956;50.558;9.678;2023-05-02T07:29:28;17.63;;;11.90;;
7821;SDS011;3956;50.558;9.678;2023-05-02T07:32:00;15.73;;;11.40;;
7821;SDS011;3956;50.558;9.678;2023-05-02T07:34:28;14.17;;;11.10;;
7821;SDS011;3956;50.558;9.678;2023-05-02T07:37:15;15.63;;;11.07;;
7821;SDS011;3956;50.558;9.678;2023-05-02T07:40:38;12.97;;;10.93;;
7821;SDS011;3956;50.558;9.678;2023-05-02T07:43:14;14.40;;;10.50;;
7821;SDS011;3956;50.558;9.678;2023-05-02T07:45:47;15.23;;;11.03;;
7821;SDS011;3956;50.558;9.678;2023-05-02T07:48:35;12.60;;;10.40;;
7821;SDS011;3956;50.558;9.678;2023-05-02T07:51:09;12.70;;;10.40;;
7821;SDS011;3956;50.558;9.678;2023-05-02T07:53:39;12.67;;;9.83;;
7821;SDS011;3956;50.558;9.678;2023-05-02T07:56:08;14.83;;;11.37;;
7821;SDS011;3956;50.558;9.678;2023-05-02T07:58:42;11.77;;;9.47;;
7821;SDS011;3956;50.558;9.678;2023-05-02T08:01:15;13.23;;;10.30;;
7821;SDS011;3956;50.558;9.678;2023-05-02T08:03:58;16.50;;;12.53;;
7821;SDS011;3956;50.558;9.678;2023-05-02T08:06:28;17.73;;;13.07;;
7821;SDS011;3956;50.558;9.678;2023-05-02T08:08:59;15.40;;;13.37;;
7821;SDS011;3956;50.558;9.678;2023-05-02T08:11:27;15.53;;;13.57;;
7821;SDS011;3956;50.558;9.678;2023-05-02T08:14:02;19.80;;;14.27;;
7821;SDS011;3956;50.558;9.678;2023-05-02T08:16:30;16.60;;;13.50;;
7821;SDS011;3956;50.558;9.678;2023-05-02T08:19:05;23.70;;;13.10;;
7821;SDS011;3956;50.558;9.678;2023-05-02T08:21:37;23.03;;;11.93;;
7821;SDS011;3956;50.558;9.678;2023-05-02T08:24:09;20.23;;;11.73;;
7821;SDS011;3956;50.558;9.678;2023-05-02T08:26:46;15.53;;;11.60;;
7821;SDS011;3956;50.558;9.678;2023-05-02T08:29:23;18.10;;;12.03;;
7821;SDS011;3956;50.558;9.678;2023-05-02T08:31:55;14.17;;;12.00;;
7821;SDS011;3956;50.558;9.678;2023-05-02T08:34:58;15.93;;;12.33;;
7821;SDS011;3956;50.558;9.678;2023-05-02T08:37:31;27.77;;;13.47;;
7821;SDS011;3956;50.558;9.678;2023-05-02T08:40:00;22.97;;;13.33;;
7821;SDS011;3956;50.558;9.678;2023-05-02T08:42:29;16.80;;;12.23;;
7821;SDS011;3956;50.558;9.678;2023-05-02T08:45:05;17.10;;;11.63;;
7821;SDS011;3956;50.558;9.678;2023-05-02T08:47:43;15.93;;;12.13;;
7821;SDS011;3956;50.558;9.678;2023-05-02T08:50:15;13.37;;;11.17;;
7821;SDS011;3956;50.558;9.678;2023-05-02T08:52:45;14.13;;;10.80;;
7821;SDS011;3956;50.558;9.678;2023-05-02T08:55:18;12.40;;;9.77;;
7821;SDS011;3956;50.558;9.678;2023-05-02T08:58:19;15.27;;;9.87;;
7821;SDS011;3956;50.558;9.678;2023-05-02T09:00:54;13.03;;;9.70;;
7821;SDS011;3956;50.558;9.678;2023-05-02T09:03:46;13.30;;;10.07;;
7821;SDS011;3956;50.558;9.678;2023-05-02T09:06:22;12.33;;;9.53;;
7821;SDS011;3956;50.558;9.678;2023-05-02T09:09:07;12.17;;;9.40;;
7821;SDS011;3956;50.558;9.678;2023-05-02T09:11:38;10.47;;;8.47;;
7821;SDS011;3956;50.558;9.678;2023-05-02T09:14:13;11.87;;;9.00;;
7821;SDS011;3956;50.558;9.678;2023-05-02T09:19:24;9.80;;;7.67;;
7821;SDS011;3956;50.558;9.678;2023-05-02T09:21:58;8.57;;;6.57;;
7821;SDS011;3956;50.558;9.678;2023-05-02T09:24:32;6.00;;;4.50;;
7821;SDS011;3956;50.558;9.678;2023-05-02T09:27:13;4.97;;;3.40;;
7821;SDS011;3956;50.558;9.678;2023-05-02T09:29:50;5.63;;;3.83;;
7821;SDS011;3956;50.558;9.678;2023-05-02T09:32:48;5.73;;;4.03;;
7821;SDS011;3956;50.558;9.678;2023-05-02T09:35:49;10.03;;;4.30;;
7821;SDS011;3956;50.558;9.678;2023-05-02T09:38:21;6.50;;;4.83;;
7821;SDS011;3956;50.558;9.678;2023-05-02T09:41:00;6.00;;;4.23;;
7821;SDS011;3956;50.558;9.678;2023-05-02T09:43:53;5.90;;;3.90;;
7821;SDS011;3956;50.558;9.678;2023-05-02T09:46:38;5.27;;;3.13;;
7821;SDS011;3956;50.558;9.678;2023-05-02T09:52:53;5.33;;;3.77;;
7821;SDS011;3956;50.558;9.678;2023-05-02T09:55:28;4.00;;;3.60;;
7821;SDS011;3956;50.558;9.678;2023-05-02T09:57:56;6.07;;;3.20;;
7821;SDS011;3956;50.558;9.678;2023-05-02T10:00:42;5.17;;;2.93;;
7821;SDS011;3956;50.558;9.678;2023-05-02T10:03:15;3.80;;;2.80;;
7821;SDS011;3956;50.558;9.678;2023-05-02T10:05:48;4.77;;;3.43;;
7821;SDS011;3956;50.558;9.678;2023-05-02T10:08:25;4.33;;;3.60;;
7821;SDS011;3956;50.558;9.678;2023-05-02T10:10:59;3.70;;;3.07;;
7821;SDS011;3956;50.558;9.678;2023-05-02T10:13:53;5.87;;;3.30;;
7821;SDS011;3956;50.558;9.678;2023-05-02T10:16:27;4.10;;;3.10;;
7821;SDS011;3956;50.558;9.678;2023-05-02T10:19:10;3.97;;;3.10;;
7821;SDS011;3956;50.558;9.678;2023-05-02T10:21:51;3.97;;;3.00;;
7821;SDS011;3956;50.558;9.678;2023-05-02T10:27:40;5.93;;;3.57;;
7821;SDS011;3956;50.558;9.678;2023-05-02T10:30:12;3.70;;;2.47;;
7821;SDS011;3956;50.558;9.678;2023-05-02T10:33:21;3.83;;;3.10;;
7821;SDS011;3956;50.558;9.678;2023-05-02T10:36:25;4.40;;;2.70;;
7821;SDS011;3956;50.558;9.678;2023-05-02T10:40:00;3.30;;;2.60;;
7821;SDS011;3956;50.558;9.678;2023-05-02T10:43:01;4.80;;;3.13;;
7821;SDS011;3956;50.558;9.678;2023-05-02T10:46:09;4.83;;;2.63;;
7821;SDS011;3956;50.558;9.678;2023-05-02T10:49:31;3.03;;;2.53;;
7821;SDS011;3956;50.558;9.678;2023-05-02T10:52:31;3.43;;;2.60;;
7821;SDS011;3956;50.558;9.678;2023-05-02T10:55:21;3.67;;;2.70;;
7821;SDS011;3956;50.558;9.678;2023-05-02T11:04:09;3.03;;;2.10;;
7821;SDS011;3956;50.558;9.678;2023-05-02T11:10:32;3.43;;;1.80;;
7821;SDS011;3956;50.558;9.678;2023-05-02T11:13:12;1.80;;;1.40;;
7821;SDS011;3956;50.558;9.678;2023-05-02T11:15:54;2.03;;;1.60;;
7821;SDS011;3956;50.558;9.678;2023-05-02T11:18:42;1.60;;;1.50;;
7821;SDS011;3956;50.558;9.678;2023-05-02T11:21:28;2.47;;;1.80;;
7821;SDS011;3956;50.558;9.678;2023-05-02T11:30:43;1.73;;;1.00;;
7821;SDS011;3956;50.558;9.678;2023-05-02T11:33:18;1.63;;;1.20;;
7821;SDS011;3956;50.558;9.678;2023-05-02T11:35:50;2.43;;;1.00;;
7821;SDS011;3956;50.558;9.678;2023-05-02T11:38:35;1.73;;;1.20;;
7821;SDS011;3956;50.558;9.678;2023-05-02T11:41:10;1.40;;;1.03;;
7821;SDS011;3956;50.558;9.678;2023-05-02T11:43:53;2.60;;;1.60;;
7821;SDS011;3956;50.558;9.678;2023-05-02T11:46:31;1.40;;;1.10;;
7821;SDS011;3956;50.558;9.678;2023-05-02T11:49:01;2.70;;;1.40;;
7821;SDS011;3956;50.558;9.678;2023-05-02T11:51:33;2.43;;;1.60;;
7821;SDS011;3956;50.558;9.678;2023-05-02T11:54:06;2.10;;;1.87;;
7821;SDS011;3956;50.558;9.678;2023-05-02T11:56:55;1.37;;;1.27;;
7821;SDS011;3956;50.558;9.678;2023-05-02T12:02:36;3.80;;;1.47;;
7821;SDS011;3956;50.558;9.678;2023-05-02T12:05:07;1.40;;;1.30;;
7821;SDS011;3956;50.558;9.678;2023-05-02T12:07:38;1.27;;;1.10;;
7821;SDS011;3956;50.558;9.678;2023-05-02T12:10:14;1.40;;;1.00;;
7821;SDS011;3956;50.558;9.678;2023-05-02T12:12:44;1.73;;;1.37;;
7821;SDS011;3956;50.558;9.678;2023-05-02T12:15:15;1.27;;;1.07;;
7821;SDS011;3956;50.558;9.678;2023-05-02T12:17:45;1.90;;;1.00;;
7821;SDS011;3956;50.558;9.678;2023-05-02T12:20:18;1.20;;;1.00;;
7821;SDS011;3956;50.558;9.678;2023-05-02T12:22:52;1.90;;;0.80;;
7821;SDS011;3956;50.558;9.678;2023-05-02T12:26:18;1.07;;;0.87;;
7821;SDS011;3956;50.558;9.678;2023-05-02T12:28:51;0.70;;;0.70;;
7821;SDS011;3956;50.558;9.678;2023-05-02T12:31:30;1.17;;;0.90;;
7821;SDS011;3956;50.558;9.678;2023-05-02T12:34:00;1.10;;;1.00;;
7821;SDS011;3956;50.558;9.678;2023-05-02T12:36:34;1.83;;;1.00;;
7821;SDS011;3956;50.558;9.678;2023-05-02T12:39:12;0.93;;;0.80;;
7821;SDS011;3956;50.558;9.678;2023-05-02T12:41:41;3.03;;;1.00;;
7821;SDS011;3956;50.558;9.678;2023-05-02T12:44:09;1.87;;;0.97;;
7821;SDS011;3956;50.558;9.678;2023-05-02T12:46:57;1.70;;;1.13;;
7821;SDS011;3956;50.558;9.678;2023-05-02T12:49:26;1.00;;;0.80;;
7821;SDS011;3956;50.558;9.678;2023-05-02T12:51:54;1.10;;;1.00;;
7821;SDS011;3956;50.558;9.678;2023-05-02T12:57:36;1.00;;;0.90;;
7821;SDS011;3956;50.558;9.678;2023-05-02T13:00:07;0.87;;;0.80;;
7821;SDS011;3956;50.558;9.678;2023-05-02T13:02:38;0.97;;;0.87;;
7821;SDS011;3956;50.558;9.678;2023-05-02T13:05:16;1.00;;;0.90;;
7821;SDS011;3956;50.558;9.678;2023-05-02T13:07:49;1.67;;;1.10;;
7821;SDS011;3956;50.558;9.678;2023-05-02T13:10:23;1.50;;;1.03;;
7821;SDS011;3956;50.558;9.678;2023-05-02T13:15:47;1.50;;;1.03;;
7821;SDS011;3956;50.558;9.678;2023-05-02T13:18:18;1.00;;;0.90;;
7821;SDS011;3956;50.558;9.678;2023-05-02T13:20:55;1.03;;;0.90;;
7821;SDS011;3956;50.558;9.678;2023-05-02T13:23:38;2.07;;;1.37;;
7821;SDS011;3956;50.558;9.678;2023-05-02T13:26:49;1.70;;;1.37;;
7821;SDS011;3956;50.558;9.678;2023-05-02T13:29:31;2.57;;;1.10;;
7821;SDS011;3956;50.558;9.678;2023-05-02T13:31:59;1.30;;;1.20;;
7821;SDS011;3956;50.558;9.678;2023-05-02T13:34:35;1.13;;;0.93;;
7821;SDS011;3956;50.558;9.678;2023-05-02T13:37:36;6.53;;;1.27;;
7821;SDS011;3956;50.558;9.678;2023-05-02T13:40:35;1.90;;;1.40;;
7821;SDS011;3956;50.558;9.678;2023-05-02T13:43:03;1.67;;;0.90;;
7821;SDS011;3956;50.558;9.678;2023-05-02T13:45:38;1.00;;;0.90;;
7821;SDS011;3956;50.558;9.678;2023-05-02T13:48:09;0.97;;;0.87;;
7821;SDS011;3956;50.558;9.678;2023-05-02T13:50:38;1.13;;;1.00;;
7821;SDS011;3956;50.558;9.678;2023-05-02T13:53:10;1.17;;;1.07;;
7821;SDS011;3956;50.558;9.678;2023-05-02T13:55:42;1.03;;;0.93;;
7821;SDS011;3956;50.558;9.678;2023-05-02T13:58:18;1.00;;;0.90;;
7821;SDS011;3956;50.558;9.678;2023-05-02T14:00:58;1.23;;;1.10;;
7821;SDS011;3956;50.558;9.678;2023-05-02T14:03:30;0.80;;;0.80;;
7821;SDS011;3956;50.558;9.678;2023-05-02T14:06:10;0.80;;;0.80;;
7821;SDS011;3956;50.558;9.678;2023-05-02T14:08:54;1.00;;;0.90;;
7821;SDS011;3956;50.558;9.678;2023-05-02T14:11:35;1.27;;;1.10;;
7821;SDS011;3956;50.558;9.678;2023-05-02T14:14:06;1.57;;;1.00;;
7821;SDS011;3956;50.558;9.678;2023-05-02T14:16:45;1.37;;;1.03;;
7821;SDS011;3956;50.558;9.678;2023-05-02T14:19:15;2.00;;;1.40;;
7821;SDS011;3956;50.558;9.678;2023-05-02T14:21:54;2.10;;;1.27;;
7821;SDS011;3956;50.558;9.678;2023-05-02T14:24:25;1.90;;;1.70;;
7821;SDS011;3956;50.558;9.678;2023-05-02T14:27:15;2.73;;;2.20;;
7821;SDS011;3956;50.558;9.678;2023-05-02T14:29:48;3.70;;;1.80;;
7821;SDS011;3956;50.558;9.678;2023-05-02T14:32:22;3.90;;;2.10;;
7821;SDS011;3956;50.558;9.678;2023-05-02T14:34:57;3.13;;;1.97;;
7821;SDS011;3956;50.558;9.678;2023-05-02T14:37:26;2.83;;;2.20;;
7821;SDS011;3956;50.558;9.678;2023-05-02T14:39:56;2.47;;;1.93;;
7821;SDS011;3956;50.558;9.678;2023-05-02T14:42:58;2.57;;;2.17;;
7821;SDS011;3956;50.558;9.678;2023-05-02T14:45:45;3.33;;;2.10;;
7821;SDS011;3956;50.558;9.678;2023-05-02T14:48:15;2.27;;;1.90;;
7821;SDS011;3956;50.558;9.678;2023-05-02T14:50:48;2.93;;;2.03;;
7821;SDS011;3956;50.558;9.678;2023-05-02T14:54:08;2.70;;;2.20;;
7821;SDS011;3956;50.558;9.678;2023-05-02T14:56:41;4.10;;;2.30;;
7821;SDS011;3956;50.558;9.678;2023-05-02T14:59:17;3.10;;;2.50;;
7821;SDS011;3956;50.558;9.678;2023-05-02T15:01:50;3.67;;;2.50;;
7821;SDS011;3956;50.558;9.678;2023-05-02T15:04:32;4.60;;;2.67;;
7821;SDS011;3956;50.558;9.678;2023-05-02T15:07:01;3.90;;;2.90;;
7821;SDS011;3956;50.558;9.678;2023-05-02T15:09:35;4.03;;;2.77;;
7821;SDS011;3956;50.558;9.678;2023-05-02T15:12:41;4.83;;;3.20;;
7821;SDS011;3956;50.558;9.678;2023-05-02T15:15:14;6.80;;;4.00;;
7821;SDS011;3956;50.558;9.678;2023-05-02T15:17:50;4.33;;;3.30;;
7821;SDS011;3956;50.558;9.678;2023-05-02T15:20:25;3.77;;;2.87;;
7821;SDS011;3956;50.558;9.678;2023-05-02T15:22:53;3.50;;;3.17;;
7821;SDS011;3956;50.558;9.678;2023-05-02T15:25:25;4.87;;;3.70;;
7821;SDS011;3956;50.558;9.678;2023-05-02T15:27:55;4.10;;;3.30;;
7821;SDS011;3956;50.558;9.678;2023-05-02T15:30:24;5.87;;;4.20;;
7821;SDS011;3956;50.558;9.678;2023-05-02T15:33:09;6.07;;;3.80;;
7821;SDS011;3956;50.558;9.678;2023-05-02T15:35:55;4.37;;;3.33;;
7821;SDS011;3956;50.558;9.678;2023-05-02T15:38:41;5.93;;;3.53;;
7821;SDS011;3956;50.558;9.678;2023-05-02T15:41:09;3.83;;;3.17;;
7821;SDS011;3956;50.558;9.678;2023-05-02T15:43:38;5.23;;;3.50;;
7821;SDS011;3956;50.558;9.678;2023-05-02T15:46:15;5.53;;;3.53;;
7821;SDS011;3956;50.558;9.678;2023-05-02T15:48:47;5.10;;;3.40;;
7821;SDS011;3956;50.558;9.678;2023-05-02T15:51:17;4.50;;;3.20;;
7821;SDS011;3956;50.558;9.678;2023-05-02T15:54:06;4.67;;;3.20;;
7821;SDS011;3956;50.558;9.678;2023-05-02T15:56:39;4.80;;;3.30;;
7821;SDS011;3956;50.558;9.678;2023-05-02T15:59:09;4.50;;;3.37;;
7821;SDS011;3956;50.558;9.678;2023-05-02T16:01:37;4.85;;;3.08;;
7821;SDS011;3956;50.558;9.678;2023-05-02T16:04:11;4.00;;;3.37;;
7821;SDS011;3956;50.558;9.678;2023-05-02T16:06:47;4.50;;;3.50;;
7821;SDS011;3956;50.558;9.678;2023-05-02T16:09:30;7.43;;;3.90;;
7821;SDS011;3956;50.558;9.678;2023-05-02T16:11:59;6.00;;;3.47;;
7821;SDS011;3956;50.558;9.678;2023-05-02T16:14:28;5.27;;;3.60;;
7821;SDS011;3956;50.558;9.678;2023-05-02T16:17:12;5.53;;;3.50;;
7821;SDS011;3956;50.558;9.678;2023-05-02T16:20:13;6.57;;;4.13;;
7821;SDS011;3956;50.558;9.678;2023-05-02T16:22:48;5.50;;;4.20;;
7821;SDS011;3956;50.558;9.678;2023-05-02T16:25:17;6.07;;;3.97;;
7821;SDS011;3956;50.558;9.678;2023-05-02T16:27:52;5.30;;;4.00;;
7821;SDS011;3956;50.558;9.678;2023-05-02T16:30:27;5.27;;;4.07;;
7821;SDS011;3956;50.558;9.678;2023-05-02T16:32:57;8.73;;;4.30;;
7821;SDS011;3956;50.558;9.678;2023-05-02T16:35:25;4.70;;;4.10;;
7821;SDS011;3956;50.558;9.678;2023-05-02T16:41:02;7.63;;;5.00;;
7821;SDS011;3956;50.558;9.678;2023-05-02T16:43:49;6.23;;;4.27;;
7821;SDS011;3956;50.558;9.678;2023-05-02T16:46:20;4.37;;;3.60;;
7821;SDS011;3956;50.558;9.678;2023-05-02T16:48:56;4.40;;;3.50;;
7821;SDS011;3956;50.558;9.678;2023-05-02T16:52:03;5.47;;;4.00;;
7821;SDS011;3956;50.558;9.678;2023-05-02T16:55:12;4.73;;;3.80;;
7821;SDS011;3956;50.558;9.678;2023-05-02T16:58:23;7.27;;;3.70;;